createdAt,value
2022-08-12T00:00:46.239Z,101974.41
2022-08-12T00:03:31.099Z,101969.16
2022-08-12T00:06:24.246Z,101974.47
2022-08-12T00:09:09.837Z,101970.50
2022-08-12T00:15:06.209Z,101985.69
2022-08-12T00:20:51.400Z,101975.75
2022-08-12T00:23:39.270Z,101975.34
2022-08-12T00:26:33.720Z,101973.19
2022-08-12T00:29:18.645Z,101971.72
2022-08-12T00:32:04.010Z,101971.09
2022-08-12T00:34:51.569Z,101969.22
2022-08-12T00:37:38.895Z,101973.94
2022-08-12T00:40:25.911Z,101969.69
2022-08-12T00:45:51.460Z,101966.13
2022-08-12T00:52:06.584Z,101972.53
2022-08-12T00:54:38.333Z,101977.66
2022-08-12T00:57:10.745Z,101974.25
2022-08-12T00:59:43.363Z,101985.78
2022-08-12T01:02:12.674Z,101984.09
2022-08-12T01:04:59.443Z,101978.56
2022-08-12T01:07:46.691Z,101983.66
2022-08-12T01:10:32.796Z,101990.69
2022-08-12T01:13:18.640Z,101981.94
2022-08-12T01:15:51.586Z,101984.53
2022-08-12T01:18:32.590Z,101983.03
2022-08-12T01:21:17.977Z,101979.84
2022-08-12T01:23:50.422Z,101974.53
2022-08-12T01:29:03.565Z,101969.44
2022-08-12T01:31:30.590Z,101969.88
2022-08-12T01:34:04.253Z,101969.66
2022-08-12T01:36:41.382Z,101976.03
2022-08-12T01:39:08.896Z,101975.44
2022-08-12T01:41:40.028Z,101976.69
2022-08-12T01:44:07.162Z,101973.09
2022-08-12T01:46:59.069Z,101961.59
2022-08-12T01:49:45.099Z,101967.31
2022-08-12T01:52:27.307Z,101970.53
2022-08-12T01:54:55.061Z,101965.22
2022-08-12T01:57:57.949Z,101963.72
2022-08-12T02:00:43.175Z,101958.41
2022-08-12T02:04:00.412Z,101968.19
2022-08-12T02:06:52.441Z,101966.91
2022-08-12T02:09:42.412Z,101959.88
2022-08-12T02:12:34.667Z,101962.41
2022-08-12T02:15:27.572Z,101961.13
2022-08-12T02:18:08.289Z,101960.72
2022-08-12T02:20:52.005Z,101960.25
2022-08-12T02:23:22.742Z,101957.28
2022-08-12T02:25:51.032Z,101955.16
2022-08-12T02:28:17.609Z,101953.47
2022-08-12T02:30:44.431Z,101956.84
2022-08-12T02:33:11.517Z,101951.53
2022-08-12T02:35:39.682Z,101953.03
2022-08-12T02:38:17.080Z,101943.44
2022-08-12T02:40:45.382Z,101945.56
2022-08-12T02:43:17.494Z,101946.84
2022-08-12T02:45:53.554Z,101951.31
2022-08-12T02:48:27.229Z,101944.06
2022-08-12T02:50:57.846Z,101949.34
2022-08-12T02:53:24.471Z,101951.47
2022-08-12T02:55:50.988Z,101945.31
2022-08-12T02:58:19.706Z,101946.78
2022-08-12T03:00:46.580Z,101946.97
2022-08-12T03:03:14.636Z,101938.91
2022-08-12T03:05:49.388Z,101941.91
2022-08-12T03:08:31.938Z,101937.44
2022-08-12T03:11:14.330Z,101930.41
2022-08-12T03:13:50.800Z,101939.13
2022-08-12T03:16:18.239Z,101936.53
2022-08-12T03:18:46.265Z,101939.28
2022-08-12T03:21:16.391Z,101934.88
2022-08-12T03:23:45.685Z,101933.34
2022-08-12T03:26:20.741Z,101944.22
2022-08-12T03:28:53.622Z,101942.03
2022-08-12T03:31:22.817Z,101932.06
2022-08-12T03:34:00.725Z,101932.91
2022-08-12T03:36:31.011Z,101936.50
2022-08-12T03:39:16.581Z,101931.00
2022-08-12T03:41:58.743Z,101932.91
2022-08-12T03:45:05.574Z,101928.66
2022-08-12T03:47:58.191Z,101928.44
2022-08-12T03:50:44.085Z,101921.44
2022-08-12T03:53:29.270Z,101917.38
2022-08-12T03:56:15.035Z,101922.91
2022-08-12T03:59:00.307Z,101919.47
2022-08-12T04:01:27.401Z,101919.06
2022-08-12T04:03:54.762Z,101927.53
2022-08-12T04:06:34.847Z,101928.97
2022-08-12T04:09:14.445Z,101925.56
2022-08-12T04:12:02.171Z,101928.97
2022-08-12T04:14:28.641Z,101930.25
2022-08-12T04:16:57.108Z,101934.72
2022-08-12T04:19:25.661Z,101931.50
2022-08-12T04:22:02.002Z,101940.00
2022-08-12T04:24:31.748Z,101933.38
2022-08-12T04:26:58.291Z,101930.88
2022-08-12T04:30:30.176Z,101934.03
2022-08-12T04:32:13.876Z,101933.59
2022-08-12T04:34:41.957Z,101928.28
2022-08-12T04:37:08.854Z,101924.50
2022-08-12T04:39:35.902Z,101937.44
2022-08-12T04:42:02.522Z,101936.63
2022-08-12T04:47:14.338Z,101929.19
2022-08-12T04:49:41.490Z,101926.66
2022-08-12T04:52:08.180Z,101922.19
2022-08-12T04:54:35.254Z,101931.97
2022-08-12T05:02:27.045Z,101931.75
2022-08-12T05:05:00.602Z,101932.41
2022-08-12T05:07:28.070Z,101933.94
2022-08-12T05:10:01.132Z,101938.19
2022-08-12T05:12:38.218Z,101927.16
2022-08-12T05:15:19.868Z,101931.63
2022-08-12T05:17:55.495Z,101933.13
2022-08-12T05:20:22.640Z,101931.22
2022-08-12T05:22:53.001Z,101937.81
2022-08-12T05:25:25.125Z,101943.13
2022-08-12T05:27:55.357Z,101940.38
2022-08-12T05:30:24.767Z,101951.25
2022-08-12T05:32:51.269Z,101947.22
2022-08-12T05:35:22.445Z,101946.63
2022-08-12T05:38:09.765Z,101947.91
2022-08-12T05:40:36.446Z,101944.94
2022-08-12T05:43:03.149Z,101946.22
2022-08-12T05:45:29.677Z,101955.78
2022-08-12T05:47:56.262Z,101954.94
2022-08-12T05:50:23.041Z,101953.03
2022-08-12T05:52:49.539Z,101944.31
2022-08-12T05:55:20.404Z,101950.53
2022-08-12T05:57:55.711Z,101945.19
2022-08-12T06:00:26.607Z,101952.03
2022-08-12T06:03:01.168Z,101950.13
2022-08-12T06:05:54.473Z,101947.13
2022-08-12T06:08:23.106Z,101949.88
2022-08-12T06:13:54.028Z,101951.09
2022-08-12T06:16:22.357Z,101941.50
2022-08-12T06:18:49.539Z,101942.13
2022-08-12T06:21:17.677Z,101946.13
2022-08-12T06:23:45.430Z,101933.72
2022-08-12T06:28:42.511Z,101931.91
2022-08-12T06:31:25.777Z,101932.69
2022-08-12T06:34:01.091Z,101934.78
2022-08-12T06:36:40.659Z,101930.66
2022-08-12T06:39:14.537Z,101923.38
2022-08-12T06:42:04.860Z,101922.41
2022-08-12T06:47:27.165Z,101933.03
2022-08-12T06:49:53.682Z,101933.84
2022-08-12T06:52:25.026Z,101928.00
2022-08-12T06:54:53.555Z,101931.50
2022-08-12T06:58:05.576Z,101925.66
2022-08-12T07:00:11.419Z,101931.63
2022-08-12T07:02:38.152Z,101924.81
2022-08-12T07:05:05.185Z,101922.34
2022-08-12T07:07:31.757Z,101920.69
2022-08-12T07:10:07.447Z,101914.22
2022-08-12T07:12:35.449Z,101912.78
2022-08-12T07:15:02.566Z,101912.84
2022-08-12T07:17:35.892Z,101914.34
2022-08-12T07:20:10.021Z,101922.88
2022-08-12T07:22:37.615Z,101917.69
2022-08-12T07:25:22.905Z,101922.78
2022-08-12T07:27:52.848Z,101922.56
2022-08-12T07:30:19.424Z,101914.97
2022-08-12T07:33:01.646Z,101926.34
2022-08-12T07:35:29.599Z,101925.16
2022-08-12T07:37:57.580Z,101915.47
2022-08-12T07:40:25.899Z,101916.63
2022-08-12T07:42:53.031Z,101922.06
2022-08-12T07:47:59.792Z,101924.09
2022-08-12T07:50:26.611Z,101922.59
2022-08-12T07:52:53.236Z,101920.78
2022-08-12T07:58:00.713Z,101930.09
2022-08-12T08:03:14.409Z,101935.97
2022-08-12T08:05:46.232Z,101934.75
2022-08-12T08:08:17.981Z,101932.81
2022-08-12T08:10:45.311Z,101933.16
2022-08-12T08:13:12.583Z,101921.53
2022-08-12T08:18:26.482Z,101928.75
2022-08-12T08:20:55.139Z,101924.91
2022-08-12T08:23:21.759Z,101923.72
2022-08-12T08:25:57.988Z,101924.94
2022-08-12T08:28:24.520Z,101927.75
2022-08-12T08:30:52.882Z,101929.03
2022-08-12T08:33:23.484Z,101931.47
2022-08-12T08:35:54.609Z,101928.97
2022-08-12T08:38:33.021Z,101927.22
2022-08-12T08:42:15.681Z,101919.59
2022-08-12T08:44:10.771Z,101926.25
2022-08-12T08:46:38.375Z,101917.91
2022-08-12T08:49:05.647Z,101918.09
2022-08-12T08:51:33.255Z,101913.81
2022-08-12T08:53:59.785Z,101920.81
2022-08-12T08:56:27.181Z,101917.91
2022-08-12T09:01:37.570Z,101913.50
2022-08-12T09:05:08.206Z,101906.56
2022-08-12T09:10:03.601Z,101920.44
2022-08-12T09:12:51.745Z,101907.00
2022-08-12T09:15:22.262Z,101903.44
2022-08-12T09:18:05.409Z,101905.56
2022-08-12T09:20:36.125Z,101902.78
2022-08-12T09:24:00.217Z,101905.56
2022-08-12T09:26:08.955Z,101905.16
2022-08-12T09:28:37.004Z,101901.06
2022-08-12T09:32:06.805Z,101908.09
2022-08-12T09:34:27.872Z,101900.47
2022-08-12T09:36:57.547Z,101897.47
2022-08-12T09:40:02.061Z,101891.63
2022-08-12T09:42:40.434Z,101890.56
2022-08-12T09:46:06.524Z,101888.28
2022-08-12T09:48:20.012Z,101886.78
2022-08-12T09:50:51.966Z,101876.47
2022-08-12T09:53:36.556Z,101869.66
2022-08-12T09:58:58.027Z,101857.75
2022-08-12T10:04:03.697Z,101863.19
2022-08-12T10:06:53.962Z,101857.28
2022-08-12T10:09:23.089Z,101854.91
2022-08-12T10:12:14.139Z,101857.28
2022-08-12T10:14:49.810Z,101854.44
2022-08-12T10:17:22.835Z,101863.31
2022-08-12T10:19:52.512Z,101856.63
2022-08-12T10:22:39.691Z,101854.00
2022-08-12T10:26:33.824Z,101858.78
2022-08-12T10:28:33.138Z,101849.97
2022-08-12T10:31:01.415Z,101846.94
2022-08-12T10:33:43.652Z,101838.06
2022-08-12T10:36:40.155Z,101838.88
2022-08-12T10:40:03.243Z,101834.91
2022-08-12T10:42:46.019Z,101832.31
2022-08-12T10:48:20.056Z,101842.47
2022-08-12T10:50:58.499Z,101828.88
2022-08-12T10:53:45.703Z,101832.91
2022-08-12T10:56:19.527Z,101820.25
2022-08-12T10:58:48.508Z,101821.88
2022-08-12T11:01:50.615Z,101823.38
2022-08-12T11:04:22.492Z,101829.72
2022-08-12T11:07:06.572Z,101824.28
2022-08-12T11:10:01.052Z,101822.31
2022-08-12T11:12:55.609Z,101824.06
2022-08-12T11:15:21.148Z,101814.59
2022-08-12T11:20:31.986Z,101812.41
2022-08-12T11:23:04.269Z,101804.28
2022-08-12T11:25:57.872Z,101794.69
2022-08-12T11:28:34.434Z,101795.47
2022-08-12T11:31:05.654Z,101788.38
2022-08-12T11:34:05.951Z,101782.31
2022-08-12T11:36:36.290Z,101784.06
2022-08-12T11:39:06.630Z,101784.94
2022-08-12T11:41:34.697Z,101781.94
2022-08-12T11:44:33.339Z,101776.88
2022-08-12T11:46:51.454Z,101779.34
2022-08-12T11:49:20.402Z,101774.47
2022-08-12T11:51:57.978Z,101774.16
2022-08-12T11:54:25.765Z,101772.88
2022-08-12T11:56:59.482Z,101775.84
2022-08-12T12:04:54.781Z,101769.94
2022-08-12T12:08:35.909Z,101769.19
2022-08-12T12:10:09.992Z,101763.72
2022-08-12T12:12:37.979Z,101761.75
2022-08-12T12:15:09.467Z,101756.59
2022-08-12T12:17:40.313Z,101760.97
2022-08-12T12:20:12.541Z,101747.16
2022-08-12T12:22:41.665Z,101752.66
2022-08-12T12:25:13.389Z,101759.28
2022-08-12T12:28:05.734Z,101744.03
2022-08-12T12:30:34.632Z,101744.38
2022-08-12T12:36:06.260Z,101735.56
2022-08-12T12:38:15.054Z,101740.16
2022-08-12T12:40:46.129Z,101734.56
2022-08-12T12:43:28.928Z,101732.56
2022-08-12T12:48:57.436Z,101728.34
2022-08-12T12:51:55.175Z,101733.63
2022-08-12T12:54:10.912Z,101728.00
2022-08-12T12:56:40.490Z,101723.94
2022-08-12T12:59:07.702Z,101729.44
2022-08-12T13:01:54.945Z,101711.72
2022-08-12T13:04:22.371Z,101722.16
2022-08-12T13:06:51.996Z,101721.81
2022-08-12T13:09:19.314Z,101709.94
2022-08-12T13:11:59.600Z,101713.38
2022-08-12T13:14:31.057Z,101707.22
2022-08-12T13:17:02.694Z,101697.53
2022-08-12T13:19:38.938Z,101703.50
2022-08-12T13:22:20.098Z,101717.88
2022-08-12T13:24:55.654Z,101702.41
2022-08-12T13:27:34.652Z,101708.72
2022-08-12T13:30:06.639Z,101714.31
2022-08-12T13:32:37.440Z,101706.22
2022-08-12T13:35:20.296Z,101708.00
2022-08-12T13:37:55.849Z,101703.84
2022-08-12T13:40:31.391Z,101694.22
2022-08-12T13:43:01.884Z,101702.00
2022-08-12T13:45:30.882Z,101700.81
2022-08-12T13:48:11.526Z,101707.75
2022-08-12T13:50:40.092Z,101688.66
2022-08-12T13:53:24.305Z,101692.78
2022-08-12T13:56:01.356Z,101681.56
2022-08-12T13:58:30.173Z,101686.22
2022-08-12T14:00:58.252Z,101683.59
2022-08-12T14:03:28.594Z,101689.69
2022-08-12T14:06:15.499Z,101671.97
2022-08-12T14:11:25.339Z,101671.09
2022-08-12T14:14:05.342Z,101662.72
2022-08-12T14:16:49.012Z,101661.97
2022-08-12T14:19:24.982Z,101668.84
2022-08-12T14:21:59.201Z,101661.00
2022-08-12T14:24:27.337Z,101658.19
2022-08-12T14:30:04.356Z,101660.06
2022-08-12T14:35:11.268Z,101653.09
2022-08-12T14:37:55.974Z,101649.59
2022-08-12T14:40:27.938Z,101651.06
2022-08-12T14:42:55.477Z,101645.03
2022-08-12T14:45:24.616Z,101638.75
2022-08-12T14:48:12.578Z,101638.22
2022-08-12T14:52:10.424Z,101636.13
2022-08-12T14:59:23.799Z,101619.31
2022-08-12T15:01:52.022Z,101616.13
2022-08-12T15:04:22.538Z,101617.69
2022-08-12T15:06:52.504Z,101620.50
2022-08-12T15:09:19.455Z,101600.84
2022-08-12T15:12:03.287Z,101615.63
2022-08-12T15:14:30.468Z,101610.88
2022-08-12T15:17:00.271Z,101613.13
2022-08-12T15:20:28.647Z,101612.16
2022-08-12T15:22:39.509Z,101605.59
2022-08-12T15:25:07.268Z,101607.16
2022-08-12T15:30:24.922Z,101609.91
2022-08-12T15:32:56.746Z,101610.34
2022-08-12T15:35:24.462Z,101604.53
2022-08-12T15:40:48.213Z,101591.94
2022-08-12T15:43:51.001Z,101592.31
2022-08-12T15:48:47.087Z,101586.50
2022-08-12T15:51:27.934Z,101589.38
2022-08-12T15:54:33.352Z,101581.34
2022-08-12T15:57:10.836Z,101587.56
2022-08-12T15:59:59.909Z,101583.97
2022-08-12T16:02:51.984Z,101587.59
2022-08-12T16:06:11.685Z,101579.75
2022-08-12T16:08:15.236Z,101576.72
2022-08-12T16:10:44.789Z,101577.41
2022-08-12T16:13:25.215Z,101586.13
2022-08-12T16:16:04.151Z,101583.13
2022-08-12T16:18:49.873Z,101568.66
2022-08-12T16:21:52.776Z,101585.28
2022-08-12T16:24:10.799Z,101581.63
2022-08-12T16:26:51.427Z,101574.00
2022-08-12T16:29:53.261Z,101573.59
2022-08-12T16:32:23.217Z,101580.16
2022-08-12T16:35:00.011Z,101568.47
2022-08-12T16:37:32.957Z,101578.03
2022-08-12T16:40:15.401Z,101578.72
2022-08-12T16:42:53.789Z,101569.00
2022-08-12T16:46:08.038Z,101573.75
2022-08-12T16:48:34.879Z,101570.50
2022-08-12T16:51:12.558Z,101572.03
2022-08-12T16:53:43.975Z,101576.16
2022-08-12T16:56:16.792Z,101565.97
2022-08-12T16:58:44.080Z,101557.63
2022-08-12T17:01:14.531Z,101558.53
2022-08-12T17:04:08.308Z,101554.84
2022-08-12T17:06:35.596Z,101555.41
2022-08-12T17:09:08.719Z,101546.16
2022-08-12T17:11:44.260Z,101553.34
2022-08-12T17:14:10.904Z,101549.78
2022-08-12T17:16:40.397Z,101550.97
2022-08-12T17:19:09.553Z,101545.28
2022-08-12T17:21:40.788Z,101544.91
2022-08-12T17:24:30.542Z,101547.94
2022-08-12T17:26:59.024Z,101555.56
2022-08-12T17:32:14.269Z,101555.94
2022-08-12T17:34:59.927Z,101555.00
2022-08-12T17:37:26.921Z,101557.44
2022-08-12T17:42:35.536Z,101547.81
2022-08-12T17:45:18.589Z,101551.03
2022-08-12T17:48:01.817Z,101551.75
2022-08-12T17:50:33.823Z,101545.34
2022-08-12T17:53:02.386Z,101540.47
2022-08-12T17:55:40.527Z,101543.75
2022-08-12T17:58:13.790Z,101539.38
2022-08-12T18:00:44.189Z,101548.97
2022-08-12T18:04:05.023Z,101543.50
2022-08-12T18:06:08.085Z,101547.47
2022-08-12T18:08:43.426Z,101546.16
2022-08-12T18:12:06.660Z,101552.84
2022-08-12T18:14:28.609Z,101548.97
2022-08-12T18:16:56.941Z,101551.13
2022-08-12T18:19:23.781Z,101554.38
2022-08-12T18:22:01.105Z,101553.31
2022-08-12T18:24:31.969Z,101558.06
2022-08-12T18:26:59.870Z,101553.25
2022-08-12T18:32:58.605Z,101552.47
2022-08-12T18:35:29.981Z,101558.28
2022-08-12T18:38:16.692Z,101561.53
2022-08-12T18:41:06.154Z,101562.25
2022-08-12T18:43:57.349Z,101566.28
2022-08-12T18:46:29.360Z,101567.16
2022-08-12T18:48:57.003Z,101573.72
2022-08-12T18:51:51.818Z,101571.31
2022-08-12T18:54:52.233Z,101572.25
2022-08-12T18:58:07.006Z,101566.47
2022-08-12T19:00:22.086Z,101576.38
2022-08-12T19:02:50.610Z,101581.28
2022-08-12T19:05:20.319Z,101580.72
2022-08-12T19:08:00.663Z,101578.03
2022-08-12T19:10:43.104Z,101586.97
2022-08-12T19:13:35.876Z,101585.88
2022-08-12T19:16:02.272Z,101580.63
2022-08-12T19:18:31.390Z,101581.13
2022-08-12T19:21:11.931Z,101584.53
2022-08-12T19:23:43.132Z,101580.06
2022-08-12T19:28:57.529Z,101594.09
2022-08-12T19:31:45.265Z,101587.06
2022-08-12T19:34:55.942Z,101592.97
2022-08-12T19:37:38.528Z,101594.09
2022-08-12T19:40:32.351Z,101595.47
2022-08-12T19:43:13.438Z,101602.19
2022-08-12T19:45:51.492Z,101599.63
2022-08-12T19:48:19.948Z,101598.22
2022-08-12T19:50:49.901Z,101597.63
2022-08-12T19:53:18.665Z,101593.38
2022-08-12T19:55:50.817Z,101607.69
2022-08-12T19:58:19.398Z,101607.28
2022-08-12T20:00:52.519Z,101600.22
2022-08-12T20:03:38.879Z,101611.13
2022-08-12T20:06:14.068Z,101606.59
2022-08-12T20:08:49.329Z,101608.47
2022-08-12T20:12:13.147Z,101603.16
2022-08-12T20:14:18.958Z,101618.44
2022-08-12T20:16:51.679Z,101616.97
2022-08-12T20:19:21.236Z,101613.03
2022-08-12T20:21:50.308Z,101619.69
2022-08-12T20:24:16.848Z,101612.09
2022-08-12T20:26:46.362Z,101614.84
2022-08-12T20:29:13.722Z,101614.47
2022-08-12T20:31:40.773Z,101615.78
2022-08-12T20:34:09.143Z,101619.06
2022-08-12T20:36:44.283Z,101614.59
2022-08-12T20:39:37.490Z,101621.72
2022-08-12T20:42:07.273Z,101619.44
2022-08-12T20:44:39.717Z,101612.66
2022-08-12T20:47:18.154Z,101613.22
2022-08-12T20:49:55.375Z,101625.41
2022-08-12T20:52:41.656Z,101621.66
2022-08-12T20:55:15.805Z,101617.13
2022-08-12T20:58:04.745Z,101620.41
2022-08-12T21:00:31.794Z,101620.91
2022-08-12T21:03:19.484Z,101620.19
2022-08-12T21:06:12.940Z,101624.53
2022-08-12T21:08:40.402Z,101622.00
2022-08-12T21:11:09.615Z,101618.38
2022-08-12T21:13:39.117Z,101617.38
2022-08-12T21:16:06.536Z,101619.41
2022-08-12T21:18:37.589Z,101622.75
2022-08-12T21:21:06.571Z,101621.56
2022-08-12T21:23:37.104Z,101619.00
2022-08-12T21:26:06.043Z,101627.59
2022-08-12T21:28:38.227Z,101630.59
2022-08-12T21:32:35.174Z,101626.84
2022-08-12T21:34:08.874Z,101627.53
2022-08-12T21:36:39.780Z,101631.66
2022-08-12T21:39:19.230Z,101624.31
2022-08-12T21:41:50.870Z,101621.44
2022-08-12T21:44:24.771Z,101635.31
2022-08-12T21:47:19.982Z,101627.69
2022-08-12T21:49:54.595Z,101628.59
2022-08-12T21:52:28.244Z,101630.69
2022-08-12T21:55:18.179Z,101624.19
2022-08-12T21:57:53.050Z,101621.81
2022-08-12T22:00:33.242Z,101623.75
2022-08-12T22:04:04.446Z,101624.75
2022-08-12T22:06:30.409Z,101626.88
2022-08-12T22:09:15.320Z,101623.63
2022-08-12T22:11:49.115Z,101631.03
2022-08-12T22:14:26.047Z,101632.88
2022-08-12T22:16:54.223Z,101631.69
2022-08-12T22:19:23.037Z,101630.47
2022-08-12T22:21:54.874Z,101634.47
2022-08-12T22:24:26.257Z,101629.78
2022-08-12T22:26:56.719Z,101629.09
2022-08-12T22:29:42.412Z,101634.06
2022-08-12T22:32:11.917Z,101634.31
2022-08-12T22:34:39.330Z,101631.19
2022-08-12T22:37:05.941Z,101633.63
2022-08-12T22:39:43.871Z,101624.94
2022-08-12T22:42:30.643Z,101627.84
2022-08-12T22:45:16.445Z,101634.00
2022-08-12T22:47:54.956Z,101626.41
2022-08-12T22:50:27.778Z,101636.75
2022-08-12T22:53:17.436Z,101636.63
2022-08-12T22:55:58.976Z,101636.63
2022-08-12T22:58:32.005Z,101635.91
2022-08-12T23:01:02.338Z,101633.25
2022-08-12T23:03:49.619Z,101633.81
2022-08-12T23:06:23.825Z,101638.31
2022-08-12T23:08:52.046Z,101633.09
2022-08-12T23:11:23.322Z,101630.81
2022-08-12T23:13:55.303Z,101636.59
2022-08-12T23:16:31.663Z,101636.81
2022-08-12T23:19:18.106Z,101638.75
2022-08-12T23:22:06.482Z,101639.47
2022-08-12T23:24:56.010Z,101635.94
2022-08-12T23:27:51.628Z,101631.72
2022-08-12T23:30:31.283Z,101622.78
2022-08-12T23:33:00.712Z,101632.19
2022-08-12T23:35:28.439Z,101631.56
2022-08-12T23:38:30.825Z,101628.41
2022-08-12T23:41:01.334Z,101626.34
2022-08-12T23:43:39.472Z,101624.91
2022-08-12T23:46:08.599Z,101625.81
2022-08-12T23:48:35.413Z,101625.91
2022-08-12T23:51:23.040Z,101619.00
2022-08-12T23:54:07.106Z,101630.22
2022-08-12T23:56:35.614Z,101630.66
2022-08-12T23:59:04.909Z,101628.84
